sensor_id;sensor_type;location;lat;lon;timestamp;temperature;humidity
69533;DHT22;56729;52.036;5.332;2022-10-16T00:00:56;12.40;99.90
69533;DHT22;56729;52.036;5.332;2022-10-16T00:01:58;12.40;99.90
69533;DHT22;56729;52.036;5.332;2022-10-16T00:03:00;12.40;99.90
69533;DHT22;56729;52.036;5.332;2022-10-16T00:04:03;12.40;99.90
69533;DHT22;56729;52.036;5.332;2022-10-16T00:05:05;12.40;99.90
69533;DHT22;56729;52.036;5.332;2022-10-16T00:06:07;12.40;99.90
69533;DHT22;56729;52.036;5.332;2022-10-16T00:07:09;12.40;99.90
69533;DHT22;56729;52.036;5.332;2022-10-16T00:08:12;12.40;99.90
69533;DHT22;56729;52.036;5.332;2022-10-16T00:09:14;12.30;99.90
69533;DHT22;56729;52.036;5.332;2022-10-16T00:10:16;12.30;99.90
69533;DHT22;56729;52.036;5.332;2022-10-16T00:11:21;12.30;99.90
69533;DHT22;56729;52.036;5.332;2022-10-16T00:12:23;12.30;99.90
69533;DHT22;56729;52.036;5.332;2022-10-16T00:13:25;12.30;99.90
69533;DHT22;56729;52.036;5.332;2022-10-16T00:14:28;12.30;99.90
69533;DHT22;56729;52.036;5.332;2022-10-16T00:15:30;12.30;99.90
69533;DHT22;56729;52.036;5.332;2022-10-16T00:16:34;12.30;99.90
69533;DHT22;56729;52.036;5.332;2022-10-16T00:17:36;12.30;99.90
69533;DHT22;56729;52.036;5.332;2022-10-16T00:18:39;12.30;99.90
69533;DHT22;56729;52.036;5.332;2022-10-16T00:19:41;12.30;99.90
69533;DHT22;56729;52.036;5.332;2022-10-16T00:20:42;12.30;99.90
69533;DHT22;56729;52.036;5.332;2022-10-16T00:21:44;12.30;99.90
69533;DHT22;56729;52.036;5.332;2022-10-16T00:22:46;12.30;99.90
69533;DHT22;56729;52.036;5.332;2022-10-16T00:23:53;12.30;99.90
69533;DHT22;56729;52.036;5.332;2022-10-16T00:24:55;12.30;99.90
69533;DHT22;56729;52.036;5.332;2022-10-16T00:25:58;12.30;99.90
69533;DHT22;56729;52.036;5.332;2022-10-16T00:27:00;12.30;99.90
69533;DHT22;56729;52.036;5.332;2022-10-16T00:28:02;12.30;99.90
69533;DHT22;56729;52.036;5.332;2022-10-16T00:29:05;12.40;99.90
69533;DHT22;56729;52.036;5.332;2022-10-16T00:30:07;12.40;99.90
69533;DHT22;56729;52.036;5.332;2022-10-16T00:31:11;12.40;99.90
69533;DHT22;56729;52.036;5.332;2022-10-16T00:32:13;12.40;99.90
69533;DHT22;56729;52.036;5.332;2022-10-16T00:33:15;12.40;99.90
69533;DHT22;56729;52.036;5.332;2022-10-16T00:34:17;12.40;99.90
69533;DHT22;56729;52.036;5.332;2022-10-16T00:35:19;12.40;99.90
69533;DHT22;56729;52.036;5.332;2022-10-16T00:36:23;12.40;99.90
69533;DHT22;56729;52.036;5.332;2022-10-16T00:37:25;12.40;99.90
69533;DHT22;56729;52.036;5.332;2022-10-16T00:38:27;12.40;99.90
69533;DHT22;56729;52.036;5.332;2022-10-16T00:39:29;12.40;99.90
69533;DHT22;56729;52.036;5.332;2022-10-16T00:40:31;12.50;99.90
69533;DHT22;56729;52.036;5.332;2022-10-16T00:41:33;12.50;99.90
69533;DHT22;56729;52.036;5.332;2022-10-16T00:42:35;12.50;99.90
69533;DHT22;56729;52.036;5.332;2022-10-16T00:43:47;12.50;99.90
69533;DHT22;56729;52.036;5.332;2022-10-16T00:44:57;12.50;99.90
69533;DHT22;56729;52.036;5.332;2022-10-16T00:46:00;12.50;99.90
69533;DHT22;56729;52.036;5.332;2022-10-16T00:47:03;12.50;99.90
69533;DHT22;56729;52.036;5.332;2022-10-16T00:48:09;12.50;99.90
69533;DHT22;56729;52.036;5.332;2022-10-16T00:49:17;12.50;99.90
69533;DHT22;56729;52.036;5.332;2022-10-16T00:50:33;12.50;99.90
69533;DHT22;56729;52.036;5.332;2022-10-16T00:51:47;12.50;99.90
69533;DHT22;56729;52.036;5.332;2022-10-16T00:52:50;12.50;99.90
69533;DHT22;56729;52.036;5.332;2022-10-16T00:53:53;12.50;99.90
69533;DHT22;56729;52.036;5.332;2022-10-16T00:54:55;12.50;99.90
69533;DHT22;56729;52.036;5.332;2022-10-16T00:55:57;12.50;99.90
69533;DHT22;56729;52.036;5.332;2022-10-16T00:57:02;12.50;99.90
69533;DHT22;56729;52.036;5.332;2022-10-16T00:58:04;12.50;99.90
69533;DHT22;56729;52.036;5.332;2022-10-16T00:59:24;12.60;99.90
69533;DHT22;56729;52.036;5.332;2022-10-16T01:00:27;12.60;99.90
69533;DHT22;56729;52.036;5.332;2022-10-16T01:01:29;12.60;99.90
69533;DHT22;56729;52.036;5.332;2022-10-16T01:02:31;12.60;99.90
69533;DHT22;56729;52.036;5.332;2022-10-16T01:03:35;12.60;99.90
69533;DHT22;56729;52.036;5.332;2022-10-16T01:04:49;12.60;99.90
69533;DHT22;56729;52.036;5.332;2022-10-16T01:09:53;12.70;99.90
69533;DHT22;56729;52.036;5.332;2022-10-16T01:11:02;12.70;99.90
69533;DHT22;56729;52.036;5.332;2022-10-16T01:12:35;12.70;99.90
69533;DHT22;56729;52.036;5.332;2022-10-16T01:13:41;12.80;99.90
69533;DHT22;56729;52.036;5.332;2022-10-16T01:15:37;12.80;99.90
69533;DHT22;56729;52.036;5.332;2022-10-16T01:16:49;12.80;99.90
69533;DHT22;56729;52.036;5.332;2022-10-16T01:18:03;12.90;99.90
69533;DHT22;56729;52.036;5.332;2022-10-16T01:19:16;12.90;99.90
69533;DHT22;56729;52.036;5.332;2022-10-16T01:21:34;12.90;99.90
69533;DHT22;56729;52.036;5.332;2022-10-16T01:23:59;12.90;99.90
69533;DHT22;56729;52.036;5.332;2022-10-16T01:25:11;12.90;99.90
69533;DHT22;56729;52.036;5.332;2022-10-16T01:27:35;12.90;99.90
69533;DHT22;56729;52.036;5.332;2022-10-16T01:28:55;12.90;99.90
69533;DHT22;56729;52.036;5.332;2022-10-16T01:30:07;12.90;99.90
69533;DHT22;56729;52.036;5.332;2022-10-16T01:31:15;12.90;99.90
69533;DHT22;56729;52.036;5.332;2022-10-16T01:33:52;12.90;99.90
69533;DHT22;56729;52.036;5.332;2022-10-16T01:36:27;12.90;99.90
69533;DHT22;56729;52.036;5.332;2022-10-16T01:39:01;12.90;99.90
69533;DHT22;56729;52.036;5.332;2022-10-16T01:40:10;12.90;99.90
69533;DHT22;56729;52.036;5.332;2022-10-16T01:41:21;12.90;99.90
69533;DHT22;56729;52.036;5.332;2022-10-16T01:42:33;12.90;99.90
69533;DHT22;56729;52.036;5.332;2022-10-16T01:43:45;13.00;99.90
69533;DHT22;56729;52.036;5.332;2022-10-16T01:44:49;13.00;99.90
69533;DHT22;56729;52.036;5.332;2022-10-16T01:45:52;13.00;99.90
69533;DHT22;56729;52.036;5.332;2022-10-16T01:46:55;13.00;99.90
69533;DHT22;56729;52.036;5.332;2022-10-16T01:47:58;13.00;99.90
69533;DHT22;56729;52.036;5.332;2022-10-16T01:49:03;13.00;99.90
69533;DHT22;56729;52.036;5.332;2022-10-16T01:50:06;13.00;99.90
69533;DHT22;56729;52.036;5.332;2022-10-16T01:51:12;13.00;99.90
69533;DHT22;56729;52.036;5.332;2022-10-16T01:52:19;13.00;99.90
69533;DHT22;56729;52.036;5.332;2022-10-16T01:53:23;13.00;99.90
69533;DHT22;56729;52.036;5.332;2022-10-16T01:54:27;13.10;99.90
69533;DHT22;56729;52.036;5.332;2022-10-16T01:55:33;13.00;99.90
69533;DHT22;56729;52.036;5.332;2022-10-16T01:56:38;13.00;99.90
69533;DHT22;56729;52.036;5.332;2022-10-16T01:57:44;13.10;99.90
69533;DHT22;56729;52.036;5.332;2022-10-16T01:58:58;13.10;99.90
69533;DHT22;56729;52.036;5.332;2022-10-16T02:00:08;13.10;99.90
69533;DHT22;56729;52.036;5.332;2022-10-16T02:01:15;13.10;99.90
69533;DHT22;56729;52.036;5.332;2022-10-16T02:02:21;13.10;99.90
69533;DHT22;56729;52.036;5.332;2022-10-16T02:03:24;13.10;99.90
69533;DHT22;56729;52.036;5.332;2022-10-16T02:04:30;13.10;99.90
69533;DHT22;56729;52.036;5.332;2022-10-16T02:05:41;13.10;99.90
69533;DHT22;56729;52.036;5.332;2022-10-16T02:06:44;13.10;99.90
69533;DHT22;56729;52.036;5.332;2022-10-16T02:07:47;13.10;99.90
69533;DHT22;56729;52.036;5.332;2022-10-16T02:08:49;13.10;99.90
69533;DHT22;56729;52.036;5.332;2022-10-16T02:09:51;13.10;99.90
69533;DHT22;56729;52.036;5.332;2022-10-16T02:10:54;13.10;99.90
69533;DHT22;56729;52.036;5.332;2022-10-16T02:12:00;13.10;99.90
69533;DHT22;56729;52.036;5.332;2022-10-16T02:14:09;13.10;99.90
69533;DHT22;56729;52.036;5.332;2022-10-16T02:15:11;13.10;99.90
69533;DHT22;56729;52.036;5.332;2022-10-16T02:16:14;13.10;99.90
69533;DHT22;56729;52.036;5.332;2022-10-16T02:17:17;13.10;99.90
69533;DHT22;56729;52.036;5.332;2022-10-16T02:18:19;13.10;99.90
69533;DHT22;56729;52.036;5.332;2022-10-16T02:19:22;13.10;99.90
69533;DHT22;56729;52.036;5.332;2022-10-16T02:20:27;13.10;99.90
69533;DHT22;56729;52.036;5.332;2022-10-16T02:21:34;13.10;99.90
69533;DHT22;56729;52.036;5.332;2022-10-16T02:22:43;13.10;99.90
69533;DHT22;56729;52.036;5.332;2022-10-16T02:25:08;13.20;99.90
69533;DHT22;56729;52.036;5.332;2022-10-16T02:26:15;13.10;99.90
69533;DHT22;56729;52.036;5.332;2022-10-16T02:27:27;13.10;99.90
69533;DHT22;56729;52.036;5.332;2022-10-16T02:28:43;13.10;99.90
69533;DHT22;56729;52.036;5.332;2022-10-16T02:29:52;13.10;99.90
69533;DHT22;56729;52.036;5.332;2022-10-16T02:31:01;13.10;99.90
69533;DHT22;56729;52.036;5.332;2022-10-16T02:32:06;13.10;99.90
69533;DHT22;56729;52.036;5.332;2022-10-16T02:33:11;13.10;99.90
69533;DHT22;56729;52.036;5.332;2022-10-16T02:34:18;13.10;99.90
69533;DHT22;56729;52.036;5.332;2022-10-16T02:35:23;13.20;99.90
69533;DHT22;56729;52.036;5.332;2022-10-16T02:36:26;13.10;99.90
69533;DHT22;56729;52.036;5.332;2022-10-16T02:37:29;13.10;99.90
69533;DHT22;56729;52.036;5.332;2022-10-16T02:38:32;13.10;99.90
69533;DHT22;56729;52.036;5.332;2022-10-16T02:39:34;13.20;99.90
69533;DHT22;56729;52.036;5.332;2022-10-16T02:40:37;13.20;99.90
69533;DHT22;56729;52.036;5.332;2022-10-16T02:41:39;13.10;99.90
69533;DHT22;56729;52.036;5.332;2022-10-16T02:42:41;13.10;99.90
69533;DHT22;56729;52.036;5.332;2022-10-16T02:43:43;13.10;99.90
69533;DHT22;56729;52.036;5.332;2022-10-16T02:44:45;13.10;99.90
69533;DHT22;56729;52.036;5.332;2022-10-16T02:45:47;13.10;99.90
69533;DHT22;56729;52.036;5.332;2022-10-16T02:46:49;13.10;99.90
69533;DHT22;56729;52.036;5.332;2022-10-16T02:47:51;13.10;99.90
69533;DHT22;56729;52.036;5.332;2022-10-16T02:48:53;13.10;99.90
69533;DHT22;56729;52.036;5.332;2022-10-16T02:49:55;13.10;99.90
69533;DHT22;56729;52.036;5.332;2022-10-16T02:50:57;13.20;99.90
69533;DHT22;56729;52.036;5.332;2022-10-16T02:51:59;13.10;99.90
69533;DHT22;56729;52.036;5.332;2022-10-16T02:53:01;13.10;99.90
69533;DHT22;56729;52.036;5.332;2022-10-16T02:54:03;13.10;99.90
69533;DHT22;56729;52.036;5.332;2022-10-16T02:55:05;13.10;99.90
69533;DHT22;56729;52.036;5.332;2022-10-16T02:56:07;13.10;99.90
69533;DHT22;56729;52.036;5.332;2022-10-16T02:57:09;13.10;99.90
69533;DHT22;56729;52.036;5.332;2022-10-16T02:58:11;13.10;99.90
69533;DHT22;56729;52.036;5.332;2022-10-16T02:59:13;13.10;99.90
69533;DHT22;56729;52.036;5.332;2022-10-16T03:00:17;13.10;99.90
69533;DHT22;56729;52.036;5.332;2022-10-16T03:01:19;13.10;99.90
69533;DHT22;56729;52.036;5.332;2022-10-16T03:02:21;13.10;99.90
69533;DHT22;56729;52.036;5.332;2022-10-16T03:03:23;13.10;99.90
69533;DHT22;56729;52.036;5.332;2022-10-16T03:04:24;13.10;99.90
69533;DHT22;56729;52.036;5.332;2022-10-16T03:05:26;13.10;99.90
69533;DHT22;56729;52.036;5.332;2022-10-16T03:06:28;13.10;99.90
69533;DHT22;56729;52.036;5.332;2022-10-16T03:07:30;13.10;99.90
69533;DHT22;56729;52.036;5.332;2022-10-16T03:08:32;13.10;99.90
69533;DHT22;56729;52.036;5.332;2022-10-16T03:09:34;13.10;99.90
69533;DHT22;56729;52.036;5.332;2022-10-16T03:10:36;13.10;99.90
69533;DHT22;56729;52.036;5.332;2022-10-16T03:11:38;13.10;99.90
69533;DHT22;56729;52.036;5.332;2022-10-16T03:12:40;13.10;99.90
69533;DHT22;56729;52.036;5.332;2022-10-16T03:13:42;13.10;99.90
69533;DHT22;56729;52.036;5.332;2022-10-16T03:14:44;13.10;99.90
69533;DHT22;56729;52.036;5.332;2022-10-16T03:15:46;13.10;99.90
69533;DHT22;56729;52.036;5.332;2022-10-16T03:16:48;13.10;99.90
69533;DHT22;56729;52.036;5.332;2022-10-16T03:17:50;13.10;99.90
69533;DHT22;56729;52.036;5.332;2022-10-16T03:18:52;13.10;99.90
69533;DHT22;56729;52.036;5.332;2022-10-16T03:19:53;13.10;99.90
69533;DHT22;56729;52.036;5.332;2022-10-16T03:20:55;13.10;99.90
69533;DHT22;56729;52.036;5.332;2022-10-16T03:21:59;13.10;99.90
69533;DHT22;56729;52.036;5.332;2022-10-16T03:23:01;13.10;99.90
69533;DHT22;56729;52.036;5.332;2022-10-16T03:24:04;13.10;99.90
69533;DHT22;56729;52.036;5.332;2022-10-16T03:25:06;13.10;99.90
69533;DHT22;56729;52.036;5.332;2022-10-16T03:26:08;13.10;99.90
69533;DHT22;56729;52.036;5.332;2022-10-16T03:27:10;13.10;99.90
69533;DHT22;56729;52.036;5.332;2022-10-16T03:28:12;13.10;99.90
69533;DHT22;56729;52.036;5.332;2022-10-16T03:29:14;13.10;99.90
69533;DHT22;56729;52.036;5.332;2022-10-16T03:30:16;13.10;99.90
69533;DHT22;56729;52.036;5.332;2022-10-16T03:31:18;13.10;99.90
69533;DHT22;56729;52.036;5.332;2022-10-16T03:32:19;13.10;99.90
69533;DHT22;56729;52.036;5.332;2022-10-16T03:33:22;13.00;99.90
69533;DHT22;56729;52.036;5.332;2022-10-16T03:34:24;13.10;99.90
69533;DHT22;56729;52.036;5.332;2022-10-16T03:35:26;13.10;99.90
69533;DHT22;56729;52.036;5.332;2022-10-16T03:36:27;13.00;99.90
69533;DHT22;56729;52.036;5.332;2022-10-16T03:37:30;13.00;99.90
69533;DHT22;56729;52.036;5.332;2022-10-16T03:38:32;13.00;99.90
69533;DHT22;56729;52.036;5.332;2022-10-16T03:39:34;13.00;99.90
69533;DHT22;56729;52.036;5.332;2022-10-16T03:40:35;13.00;99.90
69533;DHT22;56729;52.036;5.332;2022-10-16T03:41:38;13.00;99.90
69533;DHT22;56729;52.036;5.332;2022-10-16T03:42:39;13.10;99.90
69533;DHT22;56729;52.036;5.332;2022-10-16T03:43:41;13.00;99.90
69533;DHT22;56729;52.036;5.332;2022-10-16T03:44:43;13.00;99.90
69533;DHT22;56729;52.036;5.332;2022-10-16T03:45:46;13.00;99.90
69533;DHT22;56729;52.036;5.332;2022-10-16T03:46:48;13.00;99.90
69533;DHT22;56729;52.036;5.332;2022-10-16T03:47:50;13.00;99.90
69533;DHT22;56729;52.036;5.332;2022-10-16T03:48:52;13.00;99.90
69533;DHT22;56729;52.036;5.332;2022-10-16T03:49:54;13.00;99.90
69533;DHT22;56729;52.036;5.332;2022-10-16T03:50:56;13.00;99.90
69533;DHT22;56729;52.036;5.332;2022-10-16T03:51:58;13.00;99.90
69533;DHT22;56729;52.036;5.332;2022-10-16T03:52:59;12.90;99.90
69533;DHT22;56729;52.036;5.332;2022-10-16T03:54:01;12.90;99.90
69533;DHT22;56729;52.036;5.332;2022-10-16T03:55:04;12.90;99.90
69533;DHT22;56729;52.036;5.332;2022-10-16T03:56:07;12.90;99.90
69533;DHT22;56729;52.036;5.332;2022-10-16T03:57:09;12.90;99.90
69533;DHT22;56729;52.036;5.332;2022-10-16T03:58:11;12.90;99.90
69533;DHT22;56729;52.036;5.332;2022-10-16T03:59:13;12.80;99.90
69533;DHT22;56729;52.036;5.332;2022-10-16T04:00:15;12.90;99.90
69533;DHT22;56729;52.036;5.332;2022-10-16T04:01:17;12.80;99.90
69533;DHT22;56729;52.036;5.332;2022-10-16T04:02:19;12.90;99.90
69533;DHT22;56729;52.036;5.332;2022-10-16T04:03:21;12.90;99.90
69533;DHT22;56729;52.036;5.332;2022-10-16T04:04:23;12.90;99.90
69533;DHT22;56729;52.036;5.332;2022-10-16T04:05:26;12.90;99.90
69533;DHT22;56729;52.036;5.332;2022-10-16T04:06:28;12.90;99.90
69533;DHT22;56729;52.036;5.332;2022-10-16T04:07:31;12.90;99.90
69533;DHT22;56729;52.036;5.332;2022-10-16T04:08:33;12.90;99.90
69533;DHT22;56729;52.036;5.332;2022-10-16T04:09:36;12.90;99.90
69533;DHT22;56729;52.036;5.332;2022-10-16T04:10:38;12.90;99.90
69533;DHT22;56729;52.036;5.332;2022-10-16T04:11:40;12.90;99.90
69533;DHT22;56729;52.036;5.332;2022-10-16T04:12:42;12.90;99.90
69533;DHT22;56729;52.036;5.332;2022-10-16T04:13:43;12.90;99.90
69533;DHT22;56729;52.036;5.332;2022-10-16T04:14:45;12.90;99.90
69533;DHT22;56729;52.036;5.332;2022-10-16T04:15:47;12.90;99.90
69533;DHT22;56729;52.036;5.332;2022-10-16T04:16:49;12.90;99.90
69533;DHT22;56729;52.036;5.332;2022-10-16T04:17:52;12.90;99.90
69533;DHT22;56729;52.036;5.332;2022-10-16T04:18:54;12.90;99.90
69533;DHT22;56729;52.036;5.332;2022-10-16T04:19:55;12.90;99.90
69533;DHT22;56729;52.036;5.332;2022-10-16T04:21:02;12.90;99.90
69533;DHT22;56729;52.036;5.332;2022-10-16T04:22:06;12.90;99.90
69533;DHT22;56729;52.036;5.332;2022-10-16T04:23:08;12.90;99.90
69533;DHT22;56729;52.036;5.332;2022-10-16T04:24:10;13.00;99.90
69533;DHT22;56729;52.036;5.332;2022-10-16T04:25:13;13.00;99.90
69533;DHT22;56729;52.036;5.332;2022-10-16T04:26:15;13.00;99.90
69533;DHT22;56729;52.036;5.332;2022-10-16T04:27:17;12.90;99.90
69533;DHT22;56729;52.036;5.332;2022-10-16T04:28:18;12.90;99.90
69533;DHT22;56729;52.036;5.332;2022-10-16T04:29:20;12.90;99.90
69533;DHT22;56729;52.036;5.332;2022-10-16T04:30:23;13.00;99.90
69533;DHT22;56729;52.036;5.332;2022-10-16T04:31:25;12.90;99.90
69533;DHT22;56729;52.036;5.332;2022-10-16T04:32:27;12.90;99.90
69533;DHT22;56729;52.036;5.332;2022-10-16T04:33:29;13.00;99.90
69533;DHT22;56729;52.036;5.332;2022-10-16T04:34:31;12.90;99.90
69533;DHT22;56729;52.036;5.332;2022-10-16T04:35:33;12.90;99.90
69533;DHT22;56729;52.036;5.332;2022-10-16T04:36:35;12.90;99.90
69533;DHT22;56729;52.036;5.332;2022-10-16T04:37:37;12.90;99.90
69533;DHT22;56729;52.036;5.332;2022-10-16T04:38:39;12.90;99.90
69533;DHT22;56729;52.036;5.332;2022-10-16T04:39:41;12.90;99.90
69533;DHT22;56729;52.036;5.332;2022-10-16T04:40:43;12.90;99.90
69533;DHT22;56729;52.036;5.332;2022-10-16T04:41:44;12.80;99.90
69533;DHT22;56729;52.036;5.332;2022-10-16T04:42:46;12.80;99.90
69533;DHT22;56729;52.036;5.332;2022-10-16T04:43:48;12.90;99.90
69533;DHT22;56729;52.036;5.332;2022-10-16T04:44:50;12.90;99.90
69533;DHT22;56729;52.036;5.332;2022-10-16T04:45:52;12.90;99.90
69533;DHT22;56729;52.036;5.332;2022-10-16T04:46:54;12.90;99.90
69533;DHT22;56729;52.036;5.332;2022-10-16T04:47:59;12.80;99.90
69533;DHT22;56729;52.036;5.332;2022-10-16T04:49:01;12.90;99.90
69533;DHT22;56729;52.036;5.332;2022-10-16T04:50:04;12.80;99.90
69533;DHT22;56729;52.036;5.332;2022-10-16T04:51:05;12.80;99.90
69533;DHT22;56729;52.036;5.332;2022-10-16T04:52:07;12.80;99.90
69533;DHT22;56729;52.036;5.332;2022-10-16T04:53:11;12.80;99.90
69533;DHT22;56729;52.036;5.332;2022-10-16T04:54:13;12.80;99.90
69533;DHT22;56729;52.036;5.332;2022-10-16T04:55:15;12.80;99.90
69533;DHT22;56729;52.036;5.332;2022-10-16T04:56:17;12.80;99.90
69533;DHT22;56729;52.036;5.332;2022-10-16T04:57:19;12.80;99.90
69533;DHT22;56729;52.036;5.332;2022-10-16T04:58:21;12.90;99.90
69533;DHT22;56729;52.036;5.332;2022-10-16T04:59:23;12.80;99.90
69533;DHT22;56729;52.036;5.332;2022-10-16T05:00:25;12.80;99.90
69533;DHT22;56729;52.036;5.332;2022-10-16T05:01:27;12.90;99.90
69533;DHT22;56729;52.036;5.332;2022-10-16T05:02:29;12.80;99.90
69533;DHT22;56729;52.036;5.332;2022-10-16T05:03:32;12.80;99.90
69533;DHT22;56729;52.036;5.332;2022-10-16T05:04:34;12.80;99.90
69533;DHT22;56729;52.036;5.332;2022-10-16T05:05:36;12.80;99.90
69533;DHT22;56729;52.036;5.332;2022-10-16T05:06:38;12.80;99.90
69533;DHT22;56729;52.036;5.332;2022-10-16T05:07:40;12.80;99.90
69533;DHT22;56729;52.036;5.332;2022-10-16T05:08:42;12.80;99.90
69533;DHT22;56729;52.036;5.332;2022-10-16T05:09:44;12.80;99.90
69533;DHT22;56729;52.036;5.332;2022-10-16T05:10:46;12.80;99.90
69533;DHT22;56729;52.036;5.332;2022-10-16T05:11:47;12.80;99.90
69533;DHT22;56729;52.036;5.332;2022-10-16T05:12:49;12.80;99.90
69533;DHT22;56729;52.036;5.332;2022-10-16T05:13:52;12.80;99.90
69533;DHT22;56729;52.036;5.332;2022-10-16T05:14:56;12.80;99.90
69533;DHT22;56729;52.036;5.332;2022-10-16T05:16:01;12.80;99.90
69533;DHT22;56729;52.036;5.332;2022-10-16T05:17:02;12.80;99.90
69533;DHT22;56729;52.036;5.332;2022-10-16T05:18:05;12.80;99.90
69533;DHT22;56729;52.036;5.332;2022-10-16T05:19:06;12.80;99.90
69533;DHT22;56729;52.036;5.332;2022-10-16T05:20:28;12.80;99.90
69533;DHT22;56729;52.036;5.332;2022-10-16T05:21:30;12.80;99.90
69533;DHT22;56729;52.036;5.332;2022-10-16T05:22:32;12.80;99.90
69533;DHT22;56729;52.036;5.332;2022-10-16T05:23:34;12.80;99.90
69533;DHT22;56729;52.036;5.332;2022-10-16T05:24:36;12.80;99.90
69533;DHT22;56729;52.036;5.332;2022-10-16T05:25:38;12.90;99.90
69533;DHT22;56729;52.036;5.332;2022-10-16T05:26:39;12.90;99.90
69533;DHT22;56729;52.036;5.332;2022-10-16T05:27:41;12.80;99.90
69533;DHT22;56729;52.036;5.332;2022-10-16T05:28:43;12.90;99.90
69533;DHT22;56729;52.036;5.332;2022-10-16T05:29:46;12.90;99.90
69533;DHT22;56729;52.036;5.332;2022-10-16T05:30:48;12.90;99.90
69533;DHT22;56729;52.036;5.332;2022-10-16T05:31:51;12.90;99.90
69533;DHT22;56729;52.036;5.332;2022-10-16T05:32:54;12.90;99.90
69533;DHT22;56729;52.036;5.332;2022-10-16T05:33:59;12.90;99.90
69533;DHT22;56729;52.036;5.332;2022-10-16T05:35:01;12.90;99.90
69533;DHT22;56729;52.036;5.332;2022-10-16T05:36:10;12.90;99.90
69533;DHT22;56729;52.036;5.332;2022-10-16T05:37:13;12.90;99.90
69533;DHT22;56729;52.036;5.332;2022-10-16T05:38:18;12.90;99.90
69533;DHT22;56729;52.036;5.332;2022-10-16T05:39:20;12.90;99.90
69533;DHT22;56729;52.036;5.332;2022-10-16T05:40:23;12.90;99.90
69533;DHT22;56729;52.036;5.332;2022-10-16T05:41:25;12.80;99.90
69533;DHT22;56729;52.036;5.332;2022-10-16T05:42:27;12.90;99.90
69533;DHT22;56729;52.036;5.332;2022-10-16T05:43:31;12.90;99.90
69533;DHT22;56729;52.036;5.332;2022-10-16T05:44:33;12.90;99.90
69533;DHT22;56729;52.036;5.332;2022-10-16T05:45:35;12.90;99.90
69533;DHT22;56729;52.036;5.332;2022-10-16T05:46:37;12.90;99.90
69533;DHT22;56729;52.036;5.332;2022-10-16T05:47:39;12.90;99.90
69533;DHT22;56729;52.036;5.332;2022-10-16T05:48:41;12.90;99.90
69533;DHT22;56729;52.036;5.332;2022-10-16T05:49:43;12.90;99.90
69533;DHT22;56729;52.036;5.332;2022-10-16T05:50:45;12.90;99.90
69533;DHT22;56729;52.036;5.332;2022-10-16T05:51:47;12.90;99.90
69533;DHT22;56729;52.036;5.332;2022-10-16T05:52:49;12.90;99.90
69533;DHT22;56729;52.036;5.332;2022-10-16T05:53:52;12.90;99.90
69533;DHT22;56729;52.036;5.332;2022-10-16T05:54:54;12.90;99.90
69533;DHT22;56729;52.036;5.332;2022-10-16T05:55:56;12.90;99.90
69533;DHT22;56729;52.036;5.332;2022-10-16T05:56:58;13.00;99.90
69533;DHT22;56729;52.036;5.332;2022-10-16T05:58:00;13.00;99.90
69533;DHT22;56729;52.036;5.332;2022-10-16T05:59:04;13.00;99.90
69533;DHT22;56729;52.036;5.332;2022-10-16T06:00:06;12.90;99.90
69533;DHT22;56729;52.036;5.332;2022-10-16T06:01:18;12.90;99.90
69533;DHT22;56729;52.036;5.332;2022-10-16T06:02:20;13.00;99.90
69533;DHT22;56729;52.036;5.332;2022-10-16T06:03:22;13.00;99.90
69533;DHT22;56729;52.036;5.332;2022-10-16T06:04:24;13.00;99.90
69533;DHT22;56729;52.036;5.332;2022-10-16T06:05:26;13.00;99.90
69533;DHT22;56729;52.036;5.332;2022-10-16T06:06:28;13.00;99.90
69533;DHT22;56729;52.036;5.332;2022-10-16T06:07:34;13.00;99.90
69533;DHT22;56729;52.036;5.332;2022-10-16T06:08:37;13.00;99.90
69533;DHT22;56729;52.036;5.332;2022-10-16T06:09:39;13.00;99.90
69533;DHT22;56729;52.036;5.332;2022-10-16T06:10:41;13.00;99.90
69533;DHT22;56729;52.036;5.332;2022-10-16T06:11:42;13.00;99.90
69533;DHT22;56729;52.036;5.332;2022-10-16T06:12:44;13.00;99.90
69533;DHT22;56729;52.036;5.332;2022-10-16T06:13:50;13.00;99.90
69533;DHT22;56729;52.036;5.332;2022-10-16T06:14:54;13.00;99.90
69533;DHT22;56729;52.036;5.332;2022-10-16T06:15:58;13.10;99.90
69533;DHT22;56729;52.036;5.332;2022-10-16T06:17:00;13.00;99.90
69533;DHT22;56729;52.036;5.332;2022-10-16T06:18:02;13.10;99.90
69533;DHT22;56729;52.036;5.332;2022-10-16T06:19:04;13.10;99.90
69533;DHT22;56729;52.036;5.332;2022-10-16T06:20:08;13.10;99.90
69533;DHT22;56729;52.036;5.332;2022-10-16T06:21:15;13.10;99.90
69533;DHT22;56729;52.036;5.332;2022-10-16T06:22:18;13.10;99.90
69533;DHT22;56729;52.036;5.332;2022-10-16T06:23:20;13.10;99.90
69533;DHT22;56729;52.036;5.332;2022-10-16T06:24:22;13.10;99.90
69533;DHT22;56729;52.036;5.332;2022-10-16T06:25:23;13.10;99.90
69533;DHT22;56729;52.036;5.332;2022-10-16T06:26:28;13.10;99.90
69533;DHT22;56729;52.036;5.332;2022-10-16T06:27:30;13.10;99.90
69533;DHT22;56729;52.036;5.332;2022-10-16T06:28:32;13.20;99.90
69533;DHT22;56729;52.036;5.332;2022-10-16T06:29:34;13.20;99.90
69533;DHT22;56729;52.036;5.332;2022-10-16T06:30:36;13.20;99.90
69533;DHT22;56729;52.036;5.332;2022-10-16T06:31:39;13.20;99.90
69533;DHT22;56729;52.036;5.332;2022-10-16T06:32:41;13.20;99.90
69533;DHT22;56729;52.036;5.332;2022-10-16T06:33:43;13.20;99.90
69533;DHT22;56729;52.036;5.332;2022-10-16T06:34:47;13.20;99.90
69533;DHT22;56729;52.036;5.332;2022-10-16T06:35:49;13.20;99.90
69533;DHT22;56729;52.036;5.332;2022-10-16T06:36:51;13.20;99.90
69533;DHT22;56729;52.036;5.332;2022-10-16T06:37:53;13.30;99.90
69533;DHT22;56729;52.036;5.332;2022-10-16T06:38:55;13.30;99.90
69533;DHT22;56729;52.036;5.332;2022-10-16T06:39:58;13.30;99.90
69533;DHT22;56729;52.036;5.332;2022-10-16T06:41:01;13.30;99.90
69533;DHT22;56729;52.036;5.332;2022-10-16T06:42:02;13.30;99.90
69533;DHT22;56729;52.036;5.332;2022-10-16T06:43:10;13.30;99.90
69533;DHT22;56729;52.036;5.332;2022-10-16T06:44:11;13.40;99.90
69533;DHT22;56729;52.036;5.332;2022-10-16T06:45:14;13.40;99.90
69533;DHT22;56729;52.036;5.332;2022-10-16T06:46:19;13.40;99.90
69533;DHT22;56729;52.036;5.332;2022-10-16T06:47:21;13.40;99.90
69533;DHT22;56729;52.036;5.332;2022-10-16T06:48:24;13.40;99.90
69533;DHT22;56729;52.036;5.332;2022-10-16T06:49:26;13.40;99.90
69533;DHT22;56729;52.036;5.332;2022-10-16T06:50:30;13.40;99.90
69533;DHT22;56729;52.036;5.332;2022-10-16T06:51:32;13.40;99.90
69533;DHT22;56729;52.036;5.332;2022-10-16T06:52:41;13.40;99.90
69533;DHT22;56729;52.036;5.332;2022-10-16T06:53:47;13.40;99.90
69533;DHT22;56729;52.036;5.332;2022-10-16T06:55:06;13.40;99.90
69533;DHT22;56729;52.036;5.332;2022-10-16T06:56:12;13.40;99.90
69533;DHT22;56729;52.036;5.332;2022-10-16T06:57:14;13.50;99.90